sensor_id;sensor_type;location;lat;lon;timestamp;temperature;humidity
77100;SHT31;66602;48.922;2.414;2023-04-15T00:00:53;8.97;90.04
77100;SHT31;66602;48.922;2.414;2023-04-15T00:03:19;8.92;90.15
77100;SHT31;66602;48.922;2.414;2023-04-15T00:05:44;8.92;90.22
77100;SHT31;66602;48.922;2.414;2023-04-15T00:08:10;8.87;90.44
77100;SHT31;66602;48.922;2.414;2023-04-15T00:10:36;8.87;90.38
77100;SHT31;66602;48.922;2.414;2023-04-15T00:13:02;8.83;90.56
77100;SHT31;66602;48.922;2.414;2023-04-15T00:15:28;8.83;90.48
77100;SHT31;66602;48.922;2.414;2023-04-15T00:17:54;8.84;90.54
77100;SHT31;66602;48.922;2.414;2023-04-15T00:20:19;8.78;90.69
77100;SHT31;66602;48.922;2.414;2023-04-15T00:22:45;8.84;90.53
77100;SHT31;66602;48.922;2.414;2023-04-15T00:25:11;8.81;90.85
77100;SHT31;66602;48.922;2.414;2023-04-15T00:27:37;8.78;90.82
77100;SHT31;66602;48.922;2.414;2023-04-15T00:30:03;8.83;90.79
77100;SHT31;66602;48.922;2.414;2023-04-15T00:32:29;8.81;90.74
77100;SHT31;66602;48.922;2.414;2023-04-15T00:34:55;8.77;90.91
77100;SHT31;66602;48.922;2.414;2023-04-15T00:37:20;8.81;90.76
77100;SHT31;66602;48.922;2.414;2023-04-15T00:39:46;8.81;90.75
77100;SHT31;66602;48.922;2.414;2023-04-15T00:42:12;8.78;90.80
77100;SHT31;66602;48.922;2.414;2023-04-15T00:44:37;8.77;90.76
77100;SHT31;66602;48.922;2.414;2023-04-15T00:47:03;8.78;90.91
77100;SHT31;66602;48.922;2.414;2023-04-15T00:49:29;8.77;90.89
77100;SHT31;66602;48.922;2.414;2023-04-15T00:51:54;8.75;90.96
77100;SHT31;66602;48.922;2.414;2023-04-15T00:54:20;8.74;91.25
77100;SHT31;66602;48.922;2.414;2023-04-15T00:56:46;8.68;91.42
77100;SHT31;66602;48.922;2.414;2023-04-15T00:59:13;8.71;91.33
77100;SHT31;66602;48.922;2.414;2023-04-15T01:01:39;8.71;91.45
77100;SHT31;66602;48.922;2.414;2023-04-15T01:04:05;8.70;91.50
77100;SHT31;66602;48.922;2.414;2023-04-15T01:06:31;8.66;91.67
77100;SHT31;66602;48.922;2.414;2023-04-15T01:08:57;8.67;91.99
77100;SHT31;66602;48.922;2.414;2023-04-15T01:11:23;8.63;92.05
77100;SHT31;66602;48.922;2.414;2023-04-15T01:13:50;8.60;92.21
77100;SHT31;66602;48.922;2.414;2023-04-15T01:16:17;8.54;92.66
77100;SHT31;66602;48.922;2.414;2023-04-15T01:18:43;8.57;93.05
77100;SHT31;66602;48.922;2.414;2023-04-15T01:21:09;8.60;92.82
77100;SHT31;66602;48.922;2.414;2023-04-15T01:23:36;8.60;93.14
77100;SHT31;66602;48.922;2.414;2023-04-15T01:26:05;8.60;93.51
77100;SHT31;66602;48.922;2.414;2023-04-15T01:28:33;8.61;93.53
77100;SHT31;66602;48.922;2.414;2023-04-15T01:33:32;8.53;93.88
77100;SHT31;66602;48.922;2.414;2023-04-15T01:35:57;8.53;93.98
77100;SHT31;66602;48.922;2.414;2023-04-15T01:38:24;8.50;94.22
77100;SHT31;66602;48.922;2.414;2023-04-15T01:40:49;8.54;94.41
77100;SHT31;66602;48.922;2.414;2023-04-15T01:43:15;8.47;94.57
77100;SHT31;66602;48.922;2.414;2023-04-15T01:45:40;8.52;94.68
77100;SHT31;66602;48.922;2.414;2023-04-15T01:48:06;8.50;94.77
77100;SHT31;66602;48.922;2.414;2023-04-15T01:50:32;8.46;94.96
77100;SHT31;66602;48.922;2.414;2023-04-15T01:52:58;8.44;95.05
77100;SHT31;66602;48.922;2.414;2023-04-15T01:55:23;8.43;95.14
77100;SHT31;66602;48.922;2.414;2023-04-15T01:57:49;8.39;95.30
77100;SHT31;66602;48.922;2.414;2023-04-15T02:00:14;8.39;95.36
77100;SHT31;66602;48.922;2.414;2023-04-15T02:02:41;8.39;95.53
77100;SHT31;66602;48.922;2.414;2023-04-15T02:05:07;8.39;95.48
77100;SHT31;66602;48.922;2.414;2023-04-15T02:07:33;8.37;95.52
77100;SHT31;66602;48.922;2.414;2023-04-15T02:09:59;8.35;95.60
77100;SHT31;66602;48.922;2.414;2023-04-15T02:12:24;8.33;95.68
77100;SHT31;66602;48.922;2.414;2023-04-15T02:14:50;8.35;95.73
77100;SHT31;66602;48.922;2.414;2023-04-15T02:17:15;8.39;95.84
77100;SHT31;66602;48.922;2.414;2023-04-15T02:19:41;8.37;95.94
77100;SHT31;66602;48.922;2.414;2023-04-15T02:22:07;8.36;96.00
77100;SHT31;66602;48.922;2.414;2023-04-15T02:24:33;8.32;96.23
77100;SHT31;66602;48.922;2.414;2023-04-15T02:26:59;8.32;96.27
77100;SHT31;66602;48.922;2.414;2023-04-15T02:29:26;8.32;96.33
77100;SHT31;66602;48.922;2.414;2023-04-15T02:31:51;8.30;96.35
77100;SHT31;66602;48.922;2.414;2023-04-15T02:34:17;8.32;96.42
77100;SHT31;66602;48.922;2.414;2023-04-15T02:36:42;8.30;96.47
77100;SHT31;66602;48.922;2.414;2023-04-15T02:39:08;8.30;96.76
77100;SHT31;66602;48.922;2.414;2023-04-15T02:41:34;8.28;96.82
77100;SHT31;66602;48.922;2.414;2023-04-15T02:43:59;8.22;96.90
77100;SHT31;66602;48.922;2.414;2023-04-15T02:46:25;8.21;96.94
77100;SHT31;66602;48.922;2.414;2023-04-15T02:48:51;8.22;96.94
77100;SHT31;66602;48.922;2.414;2023-04-15T02:51:19;8.23;96.96
77100;SHT31;66602;48.922;2.414;2023-04-15T02:53:47;8.28;96.95
77100;SHT31;66602;48.922;2.414;2023-04-15T02:56:13;8.28;96.93
77100;SHT31;66602;48.922;2.414;2023-04-15T02:58:44;8.23;96.92
77100;SHT31;66602;48.922;2.414;2023-04-15T03:01:10;8.25;96.88
77100;SHT31;66602;48.922;2.414;2023-04-15T03:03:36;8.25;96.92
77100;SHT31;66602;48.922;2.414;2023-04-15T03:06:01;8.25;96.93
77100;SHT31;66602;48.922;2.414;2023-04-15T03:08:27;8.25;96.92
77100;SHT31;66602;48.922;2.414;2023-04-15T03:10:52;8.23;96.92
77100;SHT31;66602;48.922;2.414;2023-04-15T03:13:19;8.21;96.86
77100;SHT31;66602;48.922;2.414;2023-04-15T03:15:46;8.23;96.83
77100;SHT31;66602;48.922;2.414;2023-04-15T03:18:11;8.22;96.85
77100;SHT31;66602;48.922;2.414;2023-04-15T03:20:37;8.26;96.83
77100;SHT31;66602;48.922;2.414;2023-04-15T03:23:02;8.26;96.85
77100;SHT31;66602;48.922;2.414;2023-04-15T03:25:28;8.25;96.75
77100;SHT31;66602;48.922;2.414;2023-04-15T03:27:54;8.23;96.69
77100;SHT31;66602;48.922;2.414;2023-04-15T03:30:19;8.26;96.72
77100;SHT31;66602;48.922;2.414;2023-04-15T03:32:46;8.28;96.73
77100;SHT31;66602;48.922;2.414;2023-04-15T03:35:12;8.32;96.83
77100;SHT31;66602;48.922;2.414;2023-04-15T03:37:37;8.35;96.83
77100;SHT31;66602;48.922;2.414;2023-04-15T03:40:04;8.35;96.83
77100;SHT31;66602;48.922;2.414;2023-04-15T03:42:30;8.42;96.79
77100;SHT31;66602;48.922;2.414;2023-04-15T03:44:56;8.40;96.84
77100;SHT31;66602;48.922;2.414;2023-04-15T03:47:21;8.42;96.78
77100;SHT31;66602;48.922;2.414;2023-04-15T03:49:47;8.40;96.78
77100;SHT31;66602;48.922;2.414;2023-04-15T03:52:13;8.44;96.80
77100;SHT31;66602;48.922;2.414;2023-04-15T03:54:38;8.43;96.79
77100;SHT31;66602;48.922;2.414;2023-04-15T03:57:04;8.46;96.75
77100;SHT31;66602;48.922;2.414;2023-04-15T03:59:31;8.49;96.72
77100;SHT31;66602;48.922;2.414;2023-04-15T04:01:57;8.46;96.38
77100;SHT31;66602;48.922;2.414;2023-04-15T04:04:22;8.42;96.45
77100;SHT31;66602;48.922;2.414;2023-04-15T04:06:48;8.39;96.37
77100;SHT31;66602;48.922;2.414;2023-04-15T04:09:15;8.33;96.15
77100;SHT31;66602;48.922;2.414;2023-04-15T04:11:41;8.29;96.00
77100;SHT31;66602;48.922;2.414;2023-04-15T04:14:06;8.23;96.02
77100;SHT31;66602;48.922;2.414;2023-04-15T04:16:32;8.21;96.00
77100;SHT31;66602;48.922;2.414;2023-04-15T04:18:57;8.21;95.50
77100;SHT31;66602;48.922;2.414;2023-04-15T04:21:23;8.19;95.45
77100;SHT31;66602;48.922;2.414;2023-04-15T04:23:48;8.16;95.53
77100;SHT31;66602;48.922;2.414;2023-04-15T04:26:14;8.15;95.44
77100;SHT31;66602;48.922;2.414;2023-04-15T04:28:40;8.15;95.48
77100;SHT31;66602;48.922;2.414;2023-04-15T04:31:07;8.16;95.60
77100;SHT31;66602;48.922;2.414;2023-04-15T04:33:33;8.17;95.54
77100;SHT31;66602;48.922;2.414;2023-04-15T04:35:58;8.19;95.56
77100;SHT31;66602;48.922;2.414;2023-04-15T04:38:24;8.15;95.58
77100;SHT31;66602;48.922;2.414;2023-04-15T04:40:50;8.13;95.49
77100;SHT31;66602;48.922;2.414;2023-04-15T04:43:15;8.12;95.47
77100;SHT31;66602;48.922;2.414;2023-04-15T04:45:41;8.10;95.34
77100;SHT31;66602;48.922;2.414;2023-04-15T04:48:24;8.12;95.37
77100;SHT31;66602;48.922;2.414;2023-04-15T04:50:50;8.06;95.35
77100;SHT31;66602;48.922;2.414;2023-04-15T04:53:15;8.03;95.52
77100;SHT31;66602;48.922;2.414;2023-04-15T04:55:42;8.03;95.47
77100;SHT31;66602;48.922;2.414;2023-04-15T04:58:07;8.01;95.47
77100;SHT31;66602;48.922;2.414;2023-04-15T05:00:33;8.03;95.44
77100;SHT31;66602;48.922;2.414;2023-04-15T05:02:59;8.01;95.44
77100;SHT31;66602;48.922;2.414;2023-04-15T05:05:24;8.01;95.24
77100;SHT31;66602;48.922;2.414;2023-04-15T05:07:50;8.01;95.32
77100;SHT31;66602;48.922;2.414;2023-04-15T05:10:16;8.01;95.40
77100;SHT31;66602;48.922;2.414;2023-04-15T05:12:42;7.96;95.36
77100;SHT31;66602;48.922;2.414;2023-04-15T05:15:10;7.98;95.42
77100;SHT31;66602;48.922;2.414;2023-04-15T05:17:44;7.98;95.24
77100;SHT31;66602;48.922;2.414;2023-04-15T05:20:10;7.98;95.36
77100;SHT31;66602;48.922;2.414;2023-04-15T05:22:36;7.95;95.41
77100;SHT31;66602;48.922;2.414;2023-04-15T05:25:02;7.96;95.27
77100;SHT31;66602;48.922;2.414;2023-04-15T05:27:27;7.95;95.22
77100;SHT31;66602;48.922;2.414;2023-04-15T05:29:53;7.95;95.35
77100;SHT31;66602;48.922;2.414;2023-04-15T05:32:20;7.92;95.38
77100;SHT31;66602;48.922;2.414;2023-04-15T05:34:46;7.89;95.44
77100;SHT31;66602;48.922;2.414;2023-04-15T05:37:13;7.91;95.44
77100;SHT31;66602;48.922;2.414;2023-04-15T05:39:39;7.89;95.41
77100;SHT31;66602;48.922;2.414;2023-04-15T05:42:05;7.92;95.19
77100;SHT31;66602;48.922;2.414;2023-04-15T05:44:31;7.92;95.24
77100;SHT31;66602;48.922;2.414;2023-04-15T05:46:57;7.91;95.28
77100;SHT31;66602;48.922;2.414;2023-04-15T05:49:24;7.92;95.22
77100;SHT31;66602;48.922;2.414;2023-04-15T05:51:50;7.91;95.38
77100;SHT31;66602;48.922;2.414;2023-04-15T05:54:15;7.95;95.38
77100;SHT31;66602;48.922;2.414;2023-04-15T05:56:41;7.91;95.24
77100;SHT31;66602;48.922;2.414;2023-04-15T05:59:07;7.89;95.20
77100;SHT31;66602;48.922;2.414;2023-04-15T06:01:32;7.91;95.28
77100;SHT31;66602;48.922;2.414;2023-04-15T06:03:58;7.89;95.33
77100;SHT31;66602;48.922;2.414;2023-04-15T06:06:24;7.89;95.40
77100;SHT31;66602;48.922;2.414;2023-04-15T06:08:51;7.88;95.38
77100;SHT31;66602;48.922;2.414;2023-04-15T06:11:17;7.89;95.50
77100;SHT31;66602;48.922;2.414;2023-04-15T06:13:43;7.91;95.49
77100;SHT31;66602;48.922;2.414;2023-04-15T06:16:08;7.89;95.59
77100;SHT31;66602;48.922;2.414;2023-04-15T06:18:34;7.89;95.60
77100;SHT31;66602;48.922;2.414;2023-04-15T06:20:59;7.92;95.67
77100;SHT31;66602;48.922;2.414;2023-04-15T06:23:25;7.95;95.68
77100;SHT31;66602;48.922;2.414;2023-04-15T06:25:54;8.02;95.52
77100;SHT31;66602;48.922;2.414;2023-04-15T06:28:20;8.05;95.52
77100;SHT31;66602;48.922;2.414;2023-04-15T06:30:45;8.12;95.38
77100;SHT31;66602;48.922;2.414;2023-04-15T06:33:12;8.21;94.97
77100;SHT31;66602;48.922;2.414;2023-04-15T06:35:37;8.29;94.61
77100;SHT31;66602;48.922;2.414;2023-04-15T06:38:03;8.30;94.56
77100;SHT31;66602;48.922;2.414;2023-04-15T06:40:29;8.33;94.40
77100;SHT31;66602;48.922;2.414;2023-04-15T06:42:55;8.29;94.43
77100;SHT31;66602;48.922;2.414;2023-04-15T06:45:22;8.23;94.45
77100;SHT31;66602;48.922;2.414;2023-04-15T06:47:48;8.21;94.38
77100;SHT31;66602;48.922;2.414;2023-04-15T06:50:14;8.19;94.58
77100;SHT31;66602;48.922;2.414;2023-04-15T06:52:39;8.19;94.78
77100;SHT31;66602;48.922;2.414;2023-04-15T06:55:05;8.22;94.60
77100;SHT31;66602;48.922;2.414;2023-04-15T06:57:32;8.23;94.66
77100;SHT31;66602;48.922;2.414;2023-04-15T06:59:57;8.22;94.52
77100;SHT31;66602;48.922;2.414;2023-04-15T07:02:24;8.25;94.45
77100;SHT31;66602;48.922;2.414;2023-04-15T07:04:52;8.23;94.35
77100;SHT31;66602;48.922;2.414;2023-04-15T07:07:18;8.21;94.43
77100;SHT31;66602;48.922;2.414;2023-04-15T07:09:44;8.22;94.54
77100;SHT31;66602;48.922;2.414;2023-04-15T07:12:09;8.23;94.46
77100;SHT31;66602;48.922;2.414;2023-04-15T07:14:34;8.25;94.61
77100;SHT31;66602;48.922;2.414;2023-04-15T07:17:00;8.26;94.62
77100;SHT31;66602;48.922;2.414;2023-04-15T07:19:26;8.30;94.61
77100;SHT31;66602;48.922;2.414;2023-04-15T07:21:54;8.35;94.54
77100;SHT31;66602;48.922;2.414;2023-04-15T07:24:20;8.39;94.05
77100;SHT31;66602;48.922;2.414;2023-04-15T07:26:47;8.52;93.95
77100;SHT31;66602;48.922;2.414;2023-04-15T07:29:13;8.60;93.85
77100;SHT31;66602;48.922;2.414;2023-04-15T07:31:39;8.66;93.42
77100;SHT31;66602;48.922;2.414;2023-04-15T07:34:06;8.66;93.19
77100;SHT31;66602;48.922;2.414;2023-04-15T07:36:35;8.60;93.02
77100;SHT31;66602;48.922;2.414;2023-04-15T07:39:01;8.59;93.00
77100;SHT31;66602;48.922;2.414;2023-04-15T07:41:28;8.52;92.36
77100;SHT31;66602;48.922;2.414;2023-04-15T07:43:54;8.39;92.50
77100;SHT31;66602;48.922;2.414;2023-04-15T07:46:19;8.42;93.09
77100;SHT31;66602;48.922;2.414;2023-04-15T07:48:45;8.39;93.35
77100;SHT31;66602;48.922;2.414;2023-04-15T07:51:11;8.29;93.14
77100;SHT31;66602;48.922;2.414;2023-04-15T07:53:37;8.29;93.47
77100;SHT31;66602;48.922;2.414;2023-04-15T07:56:03;8.29;93.92
77100;SHT31;66602;48.922;2.414;2023-04-15T07:58:30;8.28;93.70
77100;SHT31;66602;48.922;2.414;2023-04-15T08:00:55;8.36;93.44
77100;SHT31;66602;48.922;2.414;2023-04-15T08:03:21;8.53;93.20
77100;SHT31;66602;48.922;2.414;2023-04-15T08:05:47;8.63;92.50
77100;SHT31;66602;48.922;2.414;2023-04-15T08:08:13;8.81;91.63
77100;SHT31;66602;48.922;2.414;2023-04-15T08:10:38;9.00;91.26
77100;SHT31;66602;48.922;2.414;2023-04-15T08:13:04;9.00;90.51
77100;SHT31;66602;48.922;2.414;2023-04-15T08:15:32;8.94;90.51
77100;SHT31;66602;48.922;2.414;2023-04-15T08:17:57;9.03;90.86
77100;SHT31;66602;48.922;2.414;2023-04-15T08:20:25;9.07;90.04
77100;SHT31;66602;48.922;2.414;2023-04-15T08:22:50;9.11;89.34
77100;SHT31;66602;48.922;2.414;2023-04-15T08:25:17;9.00;89.90
77100;SHT31;66602;48.922;2.414;2023-04-15T08:27:44;8.81;90.18
77100;SHT31;66602;48.922;2.414;2023-04-15T08:30:10;8.67;90.84
77100;SHT31;66602;48.922;2.414;2023-04-15T08:32:36;8.60;91.17
77100;SHT31;66602;48.922;2.414;2023-04-15T08:35:02;8.54;91.27
77100;SHT31;66602;48.922;2.414;2023-04-15T08:37:27;8.49;91.58
77100;SHT31;66602;48.922;2.414;2023-04-15T08:39:53;8.59;91.92
77100;SHT31;66602;48.922;2.414;2023-04-15T08:42:22;8.75;91.49
77100;SHT31;66602;48.922;2.414;2023-04-15T08:44:50;8.89;91.33
77100;SHT31;66602;48.922;2.414;2023-04-15T08:47:16;8.85;91.02
77100;SHT31;66602;48.922;2.414;2023-04-15T08:49:45;8.81;91.14
77100;SHT31;66602;48.922;2.414;2023-04-15T08:52:17;8.77;92.02
77100;SHT31;66602;48.922;2.414;2023-04-15T08:54:44;8.64;90.86
77100;SHT31;66602;48.922;2.414;2023-04-15T08:57:09;8.63;91.39
77100;SHT31;66602;48.922;2.414;2023-04-15T08:59:36;8.61;91.48
77100;SHT31;66602;48.922;2.414;2023-04-15T09:02:02;8.60;91.59
77100;SHT31;66602;48.922;2.414;2023-04-15T09:04:28;8.61;91.73
77100;SHT31;66602;48.922;2.414;2023-04-15T09:06:54;8.71;91.33
77100;SHT31;66602;48.922;2.414;2023-04-15T09:09:19;8.89;90.63
77100;SHT31;66602;48.922;2.414;2023-04-15T09:11:45;8.91;90.52
77100;SHT31;66602;48.922;2.414;2023-04-15T09:14:10;8.89;90.01
77100;SHT31;66602;48.922;2.414;2023-04-15T09:16:59;8.84;90.14
77100;SHT31;66602;48.922;2.414;2023-04-15T09:19:25;8.87;90.77
77100;SHT31;66602;48.922;2.414;2023-04-15T09:21:57;8.88;89.81
77100;SHT31;66602;48.922;2.414;2023-04-15T09:24:23;8.94;89.84
77100;SHT31;66602;48.922;2.414;2023-04-15T09:26:53;9.07;89.41
77100;SHT31;66602;48.922;2.414;2023-04-15T09:29:23;9.18;88.80
77100;SHT31;66602;48.922;2.414;2023-04-15T09:31:50;9.40;89.41
77100;SHT31;66602;48.922;2.414;2023-04-15T09:34:15;9.38;88.04
77100;SHT31;66602;48.922;2.414;2023-04-15T09:39:14;9.45;88.26
77100;SHT31;66602;48.922;2.414;2023-04-15T09:41:40;9.38;87.94
77100;SHT31;66602;48.922;2.414;2023-04-15T09:44:06;9.36;87.12
77100;SHT31;66602;48.922;2.414;2023-04-15T09:46:44;9.29;88.03
77100;SHT31;66602;48.922;2.414;2023-04-15T09:49:11;9.31;88.16
77100;SHT31;66602;48.922;2.414;2023-04-15T09:51:45;9.36;88.85
77100;SHT31;66602;48.922;2.414;2023-04-15T09:54:11;9.26;88.51
77100;SHT31;66602;48.922;2.414;2023-04-15T09:56:38;9.22;89.28
77100;SHT31;66602;48.922;2.414;2023-04-15T09:59:09;9.10;88.31
77100;SHT31;66602;48.922;2.414;2023-04-15T10:01:35;8.94;88.49
77100;SHT31;66602;48.922;2.414;2023-04-15T10:04:02;8.95;88.33
77100;SHT31;66602;48.922;2.414;2023-04-15T10:06:29;9.15;88.57
77100;SHT31;66602;48.922;2.414;2023-04-15T10:08:56;9.42;86.46
77100;SHT31;66602;48.922;2.414;2023-04-15T10:11:23;9.82;85.61
77100;SHT31;66602;48.922;2.414;2023-04-15T10:13:49;10.28;85.80
77100;SHT31;66602;48.922;2.414;2023-04-15T10:16:20;10.55;83.79
77100;SHT31;66602;48.922;2.414;2023-04-15T10:18:54;11.00;81.11
77100;SHT31;66602;48.922;2.414;2023-04-15T10:21:20;11.57;81.30
77100;SHT31;66602;48.922;2.414;2023-04-15T10:23:48;11.85;77.90
77100;SHT31;66602;48.922;2.414;2023-04-15T10:26:15;12.26;78.69
77100;SHT31;66602;48.922;2.414;2023-04-15T10:28:42;12.80;76.92
77100;SHT31;66602;48.922;2.414;2023-04-15T10:31:11;12.67;76.24
77100;SHT31;66602;48.922;2.414;2023-04-15T10:33:38;11.99;79.09
77100;SHT31;66602;48.922;2.414;2023-04-15T10:36:04;11.23;79.45
77100;SHT31;66602;48.922;2.414;2023-04-15T10:38:40;10.71;82.43
77100;SHT31;66602;48.922;2.414;2023-04-15T10:41:26;10.73;83.59
77100;SHT31;66602;48.922;2.414;2023-04-15T10:43:54;10.71;81.16
77100;SHT31;66602;48.922;2.414;2023-04-15T10:46:36;10.55;83.54
77100;SHT31;66602;48.922;2.414;2023-04-15T10:49:16;10.68;82.78
77100;SHT31;66602;48.922;2.414;2023-04-15T10:51:44;11.20;82.72
77100;SHT31;66602;48.922;2.414;2023-04-15T10:54:14;11.20;80.67
77100;SHT31;66602;48.922;2.414;2023-04-15T10:56:41;11.23;79.38
77100;SHT31;66602;48.922;2.414;2023-04-15T10:59:08;11.79;79.86
77100;SHT31;66602;48.922;2.414;2023-04-15T11:01:54;11.93;78.12
77100;SHT31;66602;48.922;2.414;2023-04-15T11:07:50;10.58;80.99
77100;SHT31;66602;48.922;2.414;2023-04-15T11:12:52;10.46;82.32
77100;SHT31;66602;48.922;2.414;2023-04-15T11:15:33;10.55;82.32
77100;SHT31;66602;48.922;2.414;2023-04-15T11:20:45;11.24;79.04
77100;SHT31;66602;48.922;2.414;2023-04-15T11:23:12;11.37;77.82
77100;SHT31;66602;48.922;2.414;2023-04-15T11:25:38;11.07;78.25
77100;SHT31;66602;48.922;2.414;2023-04-15T11:28:04;10.83;80.87
77100;SHT31;66602;48.922;2.414;2023-04-15T11:30:32;10.58;81.47
77100;SHT31;66602;48.922;2.414;2023-04-15T11:33:05;10.42;80.83
77100;SHT31;66602;48.922;2.414;2023-04-15T11:35:31;10.54;80.96
77100;SHT31;66602;48.922;2.414;2023-04-15T11:37:56;10.45;81.42
77100;SHT31;66602;48.922;2.414;2023-04-15T11:40:24;10.38;81.40
77100;SHT31;66602;48.922;2.414;2023-04-15T11:43:11;10.45;81.45
77100;SHT31;66602;48.922;2.414;2023-04-15T11:45:48;10.49;81.03
77100;SHT31;66602;48.922;2.414;2023-04-15T11:48:14;10.44;81.34
77100;SHT31;66602;48.922;2.414;2023-04-15T11:50:40;10.44;80.41
77100;SHT31;66602;48.922;2.414;2023-04-15T11:53:11;10.49;81.25
77100;SHT31;66602;48.922;2.414;2023-04-15T11:55:47;10.80;80.11
77100;SHT31;66602;48.922;2.414;2023-04-15T11:58:22;11.06;79.43
77100;SHT31;66602;48.922;2.414;2023-04-15T12:00:58;11.14;78.07
77100;SHT31;66602;48.922;2.414;2023-04-15T12:03:29;11.31;79.69
77100;SHT31;66602;48.922;2.414;2023-04-15T12:09:02;11.09;78.10
77100;SHT31;66602;48.922;2.414;2023-04-15T12:14:06;10.76;79.49
77100;SHT31;66602;48.922;2.414;2023-04-15T12:16:36;10.75;79.23
77100;SHT31;66602;48.922;2.414;2023-04-15T12:19:13;10.79;80.01
77100;SHT31;66602;48.922;2.414;2023-04-15T12:21:41;10.95;79.55
77100;SHT31;66602;48.922;2.414;2023-04-15T12:24:09;11.06;78.13
77100;SHT31;66602;48.922;2.414;2023-04-15T12:26:49;11.09;78.53
77100;SHT31;66602;48.922;2.414;2023-04-15T12:29:16;10.99;78.72
77100;SHT31;66602;48.922;2.414;2023-04-15T12:32:06;10.92;78.16
77100;SHT31;66602;48.922;2.414;2023-04-15T12:34:36;10.80;78.29
77100;SHT31;66602;48.922;2.414;2023-04-15T12:37:04;10.76;80.86
77100;SHT31;66602;48.922;2.414;2023-04-15T12:39:34;10.73;79.90
77100;SHT31;66602;48.922;2.414;2023-04-15T12:42:01;10.77;79.80
77100;SHT31;66602;48.922;2.414;2023-04-15T12:44:27;10.82;79.01
77100;SHT31;66602;48.922;2.414;2023-04-15T12:46:53;10.93;78.87
77100;SHT31;66602;48.922;2.414;2023-04-15T12:49:22;11.17;77.31
77100;SHT31;66602;48.922;2.414;2023-04-15T12:51:49;11.40;77.52
77100;SHT31;66602;48.922;2.414;2023-04-15T12:54:16;11.53;77.66
77100;SHT31;66602;48.922;2.414;2023-04-15T12:56:42;11.95;75.88
77100;SHT31;66602;48.922;2.414;2023-04-15T12:59:08;12.43;74.87
77100;SHT31;66602;48.922;2.414;2023-04-15T13:01:34;12.60;74.50
77100;SHT31;66602;48.922;2.414;2023-04-15T13:03:59;12.54;72.76
77100;SHT31;66602;48.922;2.414;2023-04-15T13:06:25;12.52;72.89
77100;SHT31;66602;48.922;2.414;2023-04-15T13:08:50;12.59;72.98
77100;SHT31;66602;48.922;2.414;2023-04-15T13:11:19;12.64;72.54
77100;SHT31;66602;48.922;2.414;2023-04-15T13:13:44;12.88;71.85
77100;SHT31;66602;48.922;2.414;2023-04-15T13:16:10;13.02;69.64
77100;SHT31;66602;48.922;2.414;2023-04-15T13:18:35;12.88;69.61
77100;SHT31;66602;48.922;2.414;2023-04-15T13:21:01;12.87;70.10
77100;SHT31;66602;48.922;2.414;2023-04-15T13:23:27;12.74;69.38
77100;SHT31;66602;48.922;2.414;2023-04-15T13:25:53;12.85;68.16
77100;SHT31;66602;48.922;2.414;2023-04-15T13:28:18;13.02;67.81
77100;SHT31;66602;48.922;2.414;2023-04-15T13:30:44;13.42;66.58
77100;SHT31;66602;48.922;2.414;2023-04-15T13:33:10;13.93;65.96
77100;SHT31;66602;48.922;2.414;2023-04-15T13:35:36;14.18;65.19
77100;SHT31;66602;48.922;2.414;2023-04-15T13:38:01;13.91;65.03
77100;SHT31;66602;48.922;2.414;2023-04-15T13:40:27;13.80;65.67
77100;SHT31;66602;48.922;2.414;2023-04-15T13:42:52;14.18;65.23
77100;SHT31;66602;48.922;2.414;2023-04-15T13:45:18;15.09;62.26
77100;SHT31;66602;48.922;2.414;2023-04-15T13:47:43;16.09;61.00
77100;SHT31;66602;48.922;2.414;2023-04-15T13:50:09;15.82;59.01
77100;SHT31;66602;48.922;2.414;2023-04-15T13:52:35;15.58;60.29
77100;SHT31;66602;48.922;2.414;2023-04-15T13:55:04;15.18;61.27
77100;SHT31;66602;48.922;2.414;2023-04-15T13:57:30;15.19;61.97
77100;SHT31;66602;48.922;2.414;2023-04-15T13:59:56;15.81;60.21
77100;SHT31;66602;48.922;2.414;2023-04-15T14:02:22;16.22;58.88
77100;SHT31;66602;48.922;2.414;2023-04-15T14:04:47;16.60;57.30
77100;SHT31;66602;48.922;2.414;2023-04-15T14:07:13;18.24;55.19
77100;SHT31;66602;48.922;2.414;2023-04-15T14:09:39;18.36;54.20
77100;SHT31;66602;48.922;2.414;2023-04-15T14:12:04;18.43;52.90
77100;SHT31;66602;48.922;2.414;2023-04-15T14:14:30;19.92;49.01
77100;SHT31;66602;48.922;2.414;2023-04-15T14:16:55;19.77;47.46
77100;SHT31;66602;48.922;2.414;2023-04-15T14:19:22;19.47;50.50
77100;SHT31;66602;48.922;2.414;2023-04-15T14:21:47;18.72;51.40
77100;SHT31;66602;48.922;2.414;2023-04-15T14:24:13;18.13;52.42
77100;SHT31;66602;48.922;2.414;2023-04-15T14:26:38;17.22;56.10
77100;SHT31;66602;48.922;2.414;2023-04-15T14:29:04;16.97;55.20
77100;SHT31;66602;48.922;2.414;2023-04-15T14:31:29;16.30;58.66
77100;SHT31;66602;48.922;2.414;2023-04-15T14:33:55;15.94;58.05
77100;SHT31;66602;48.922;2.414;2023-04-15T14:36:20;15.62;60.02
77100;SHT31;66602;48.922;2.414;2023-04-15T14:38:46;15.74;59.14
77100;SHT31;66602;48.922;2.414;2023-04-15T14:41:11;15.41;60.43
77100;SHT31;66602;48.922;2.414;2023-04-15T14:43:37;15.11;60.66
77100;SHT31;66602;48.922;2.414;2023-04-15T14:46:02;15.13;60.75
77100;SHT31;66602;48.922;2.414;2023-04-15T14:48:30;15.18;61.68
77100;SHT31;66602;48.922;2.414;2023-04-15T14:50:56;15.34;59.30
77100;SHT31;66602;48.922;2.414;2023-04-15T14:53:21;15.54;58.95
77100;SHT31;66602;48.922;2.414;2023-04-15T14:55:48;15.84;59.25
77100;SHT31;66602;48.922;2.414;2023-04-15T14:58:13;15.85;59.52
77100;SHT31;66602;48.922;2.414;2023-04-15T15:00:39;15.48;58.45
77100;SHT31;66602;48.922;2.414;2023-04-15T15:03:09;14.92;60.66
77100;SHT31;66602;48.922;2.414;2023-04-15T15:05:44;14.83;61.19
77100;SHT31;66602;48.922;2.414;2023-04-15T15:08:10;15.19;60.68
77100;SHT31;66602;48.922;2.414;2023-04-15T15:10:36;15.30;60.22
77100;SHT31;66602;48.922;2.414;2023-04-15T15:13:07;16.18;57.29
77100;SHT31;66602;48.922;2.414;2023-04-15T15:15:34;17.08;54.74
77100;SHT31;66602;48.922;2.414;2023-04-15T15:18:00;17.94;51.78
77100;SHT31;66602;48.922;2.414;2023-04-15T15:20:26;17.90;51.44
77100;SHT31;66602;48.922;2.414;2023-04-15T15:22:52;17.93;51.22
77100;SHT31;66602;48.922;2.414;2023-04-15T15:25:17;18.43;52.98
77100;SHT31;66602;48.922;2.414;2023-04-15T15:27:43;17.32;53.44
77100;SHT31;66602;48.922;2.414;2023-04-15T15:30:09;16.84;54.19
77100;SHT31;66602;48.922;2.414;2023-04-15T15:32:40;16.08;54.83
77100;SHT31;66602;48.922;2.414;2023-04-15T15:35:07;15.67;58.44
77100;SHT31;66602;48.922;2.414;2023-04-15T15:37:34;15.85;57.31
77100;SHT31;66602;48.922;2.414;2023-04-15T15:39:59;15.74;56.63
77100;SHT31;66602;48.922;2.414;2023-04-15T15:42:25;16.81;54.36
77100;SHT31;66602;48.922;2.414;2023-04-15T15:44:51;17.22;51.98
77100;SHT31;66602;48.922;2.414;2023-04-15T15:47:20;17.69;51.14
77100;SHT31;66602;48.922;2.414;2023-04-15T15:49:46;17.77;50.74
77100;SHT31;66602;48.922;2.414;2023-04-15T15:52:11;17.59;50.49
77100;SHT31;66602;48.922;2.414;2023-04-15T15:54:38;17.27;52.03
77100;SHT31;66602;48.922;2.414;2023-04-15T15:57:04;16.71;54.89